createdAt,value
2019-02-02T00:02:10.332Z,90.65
2019-02-02T00:05:16.777Z,90.99
2019-02-02T00:08:23.600Z,90.80
2019-02-02T00:11:30.483Z,90.95
2019-02-02T00:14:36.990Z,91.22
2019-02-02T00:17:43.522Z,91.25
2019-02-02T00:20:50.319Z,91.26
2019-02-02T00:23:56.926Z,91.40
2019-02-02T00:27:03.446Z,91.65
2019-02-02T00:30:11.427Z,91.62
2019-02-02T00:33:18.963Z,91.51
2019-02-02T00:36:25.290Z,91.54
2019-02-02T00:39:32.898Z,91.52
2019-02-02T00:42:39.552Z,91.60
2019-02-02T00:45:45.875Z,91.77
2019-02-02T00:48:52.386Z,91.85
2019-02-02T00:51:58.776Z,91.89
2019-02-02T00:55:05.943Z,91.91
2019-02-02T00:58:12.627Z,91.98
2019-02-02T01:01:20.502Z,92.15
2019-02-02T01:04:26.919Z,92.09
2019-02-02T01:07:33.684Z,91.93
2019-02-02T01:10:40.141Z,91.65
2019-02-02T01:13:47.903Z,91.65
2019-02-02T01:16:54.743Z,91.77
2019-02-02T01:20:01.332Z,91.80
2019-02-02T01:23:08.725Z,91.45
2019-02-02T01:26:15.240Z,91.23
2019-02-02T01:29:21.777Z,91.35
2019-02-02T01:32:29.323Z,91.76
2019-02-02T01:35:35.584Z,92.12
2019-02-02T01:38:42.377Z,92.18
2019-02-02T01:41:49.480Z,92.23
2019-02-02T01:44:55.709Z,92.28
2019-02-02T01:48:02.449Z,92.29
2019-02-02T01:51:10.315Z,92.27
2019-02-02T01:54:16.639Z,92.27
2019-02-02T01:57:23.351Z,92.29
2019-02-02T02:00:31.452Z,92.14
2019-02-02T02:03:37.775Z,92.20
2019-02-02T02:06:44.369Z,92.21
2019-02-02T02:09:50.855Z,92.38
2019-02-02T02:12:57.489Z,92.42
2019-02-02T02:16:04.126Z,92.23
2019-02-02T02:19:10.684Z,92.21
2019-02-02T02:22:17.206Z,92.01
2019-02-02T02:25:23.824Z,91.74
2019-02-02T02:28:30.292Z,91.81
2019-02-02T02:31:39.156Z,91.98
2019-02-02T02:34:45.462Z,92.09
2019-02-02T02:37:51.714Z,92.25
2019-02-02T02:40:58.157Z,92.53
2019-02-02T02:44:04.459Z,92.33
2019-02-02T02:47:10.903Z,92.26
2019-02-02T02:50:18.847Z,92.54
2019-02-02T02:53:25.278Z,92.51
2019-02-02T02:56:32.552Z,92.36
2019-02-02T02:59:39.297Z,92.30
2019-02-02T03:02:45.936Z,92.26
2019-02-02T03:05:52.260Z,92.37
2019-02-02T03:08:58.578Z,92.44
2019-02-02T03:12:05.277Z,92.41
2019-02-02T03:15:12.602Z,92.27
2019-02-02T03:18:22.099Z,92.17
2019-02-02T03:21:28.335Z,92.22
2019-02-02T03:24:35.045Z,92.40
2019-02-02T03:27:42.727Z,92.54
2019-02-02T03:30:48.850Z,92.65
2019-02-02T03:33:55.344Z,92.58
2019-02-02T03:37:01.984Z,92.53
2019-02-02T03:40:14.027Z,92.70
2019-02-02T03:43:20.291Z,92.60
2019-02-02T03:46:27.254Z,92.37
2019-02-02T03:49:33.582Z,92.24
2019-02-02T03:52:40.047Z,91.91
2019-02-02T03:55:46.881Z,91.97
2019-02-02T03:59:06.140Z,92.04
2019-02-02T04:02:03.601Z,91.91
2019-02-02T04:05:13.007Z,92.01
2019-02-02T04:08:19.774Z,92.17
2019-02-02T04:11:26.225Z,92.15
2019-02-02T04:14:32.787Z,92.24
2019-02-02T04:17:39.027Z,92.11
2019-02-02T04:20:45.524Z,92.03
2019-02-02T04:23:52.065Z,92.12
2019-02-02T04:26:58.617Z,92.24
2019-02-02T04:30:06.977Z,92.33
2019-02-02T04:33:13.405Z,92.33
2019-02-02T04:36:19.973Z,92.24
2019-02-02T04:39:26.475Z,91.92
2019-02-02T04:42:32.736Z,91.98
2019-02-02T04:45:40.653Z,92.05
2019-02-02T04:48:47.020Z,92.02
2019-02-02T04:51:53.955Z,92.00
2019-02-02T04:55:00.505Z,91.99
2019-02-02T04:58:07.063Z,92.10
2019-02-02T05:01:13.541Z,92.41
2019-02-02T05:04:20.540Z,92.40
2019-02-02T05:07:27.457Z,92.32
2019-02-02T05:10:34.073Z,92.25
2019-02-02T05:13:40.948Z,92.15
2019-02-02T05:16:48.053Z,91.95
2019-02-02T05:19:55.078Z,91.70
2019-02-02T05:23:01.884Z,91.72
2019-02-02T05:26:08.607Z,91.89
2019-02-02T05:29:15.498Z,92.06
2019-02-02T05:32:21.897Z,92.17
2019-02-02T05:35:28.456Z,92.21
2019-02-02T05:38:34.802Z,92.32
2019-02-02T05:41:42.321Z,92.27
2019-02-02T05:44:48.827Z,92.07
2019-02-02T05:47:55.546Z,91.97
2019-02-02T05:51:02.147Z,92.03
2019-02-02T05:54:08.544Z,92.00
2019-02-02T05:57:15.451Z,91.99
2019-02-02T06:00:45.744Z,92.13
2019-02-02T06:03:52.219Z,92.28
2019-02-02T06:06:58.687Z,92.33
2019-02-02T06:10:06.388Z,92.10
2019-02-02T06:13:13.446Z,92.10
2019-02-02T06:16:20.405Z,92.08
2019-02-02T06:19:27.441Z,91.83
2019-02-02T06:22:35.664Z,92.14
2019-02-02T06:25:44.073Z,92.21
2019-02-02T06:28:50.895Z,92.15
2019-02-02T06:31:58.276Z,92.18
2019-02-02T06:35:06.149Z,92.15
2019-02-02T06:38:12.960Z,92.23
2019-02-02T06:41:19.693Z,92.31
2019-02-02T06:44:26.608Z,92.17
2019-02-02T06:47:33.446Z,91.56
2019-02-02T06:50:40.198Z,91.53
2019-02-02T06:53:46.835Z,91.63
2019-02-02T06:56:53.636Z,91.85
2019-02-02T07:00:00.226Z,91.64
2019-02-02T07:03:06.810Z,91.50
2019-02-02T07:06:13.537Z,91.40
2019-02-02T07:09:20.696Z,91.17
2019-02-02T07:12:27.885Z,90.84
2019-02-02T07:15:35.339Z,90.89
2019-02-02T07:18:42.868Z,91.14
2019-02-02T07:21:50.542Z,91.30
2019-02-02T07:24:57.438Z,91.28
2019-02-02T07:28:04.863Z,91.20
2019-02-02T07:31:11.895Z,91.20
2019-02-02T07:34:19.185Z,91.32
2019-02-02T07:37:25.612Z,91.39
2019-02-02T07:40:32.539Z,91.66
2019-02-02T07:43:39.830Z,91.75
2019-02-02T07:46:46.640Z,91.54
2019-02-02T07:49:52.964Z,91.55
2019-02-02T07:52:59.671Z,91.35
2019-02-02T07:56:07.212Z,91.28
2019-02-02T07:59:14.030Z,91.11
2019-02-02T08:02:20.268Z,90.88
2019-02-02T08:05:27.201Z,90.56
2019-02-02T08:08:34.180Z,90.60
2019-02-02T08:11:40.888Z,90.88
2019-02-02T08:14:47.174Z,90.73
2019-02-02T08:17:53.610Z,90.74
2019-02-02T08:20:59.867Z,90.72
2019-02-02T08:24:06.725Z,90.56
2019-02-02T08:27:13.448Z,90.70
2019-02-02T08:30:24.814Z,90.66
2019-02-02T08:33:31.999Z,90.54
2019-02-02T08:36:38.695Z,90.39
2019-02-02T08:39:45.080Z,90.37
2019-02-02T08:42:52.025Z,90.39
2019-02-02T08:45:58.759Z,90.06
2019-02-02T08:49:06.371Z,89.78
2019-02-02T08:52:13.334Z,89.29
2019-02-02T08:55:20.278Z,88.91
2019-02-02T08:58:27.259Z,88.40
2019-02-02T09:01:34.923Z,88.65
2019-02-02T09:04:41.643Z,88.35
2019-02-02T09:07:48.412Z,88.58
2019-02-02T09:10:56.133Z,88.64
2019-02-02T09:14:03.316Z,89.61
2019-02-02T09:17:10.198Z,89.62
2019-02-02T09:20:17.409Z,89.42
2019-02-02T09:23:24.267Z,89.03
2019-02-02T09:26:31.093Z,88.87
2019-02-02T09:29:37.873Z,88.72
2019-02-02T09:32:44.983Z,88.52
2019-02-02T09:35:51.451Z,88.44
2019-02-02T09:38:58.405Z,88.14
2019-02-02T09:42:05.582Z,88.37
2019-02-02T09:45:13.420Z,88.06
2019-02-02T09:48:20.764Z,88.43
2019-02-02T09:51:27.683Z,88.32
2019-02-02T09:54:34.575Z,88.15
2019-02-02T09:57:40.899Z,87.82
2019-02-02T10:00:47.458Z,87.92
2019-02-02T10:03:54.244Z,87.65
2019-02-02T10:07:01.686Z,87.49
2019-02-02T10:10:11.089Z,87.42
2019-02-02T10:13:18.056Z,87.52
2019-02-02T10:16:25.010Z,87.68
2019-02-02T10:19:31.419Z,87.96
2019-02-02T10:22:39.272Z,87.54
2019-02-02T10:25:46.048Z,87.45
2019-02-02T10:28:53.981Z,87.50
2019-02-02T10:32:00.907Z,87.55
2019-02-02T10:35:07.538Z,87.35
2019-02-02T10:38:15.425Z,86.75
2019-02-02T10:41:22.020Z,86.60
2019-02-02T10:44:30.555Z,85.94
2019-02-02T10:47:37.006Z,86.46
2019-02-02T10:50:43.981Z,86.35
2019-02-02T10:53:50.310Z,86.23
2019-02-02T10:56:57.012Z,86.15
2019-02-02T11:00:04.150Z,85.83
2019-02-02T11:03:11.225Z,85.45
2019-02-02T11:06:17.974Z,85.81
2019-02-02T11:09:25.067Z,86.04
2019-02-02T11:12:32.401Z,85.84
2019-02-02T11:15:39.601Z,86.31
2019-02-02T11:18:46.703Z,87.05
2019-02-02T11:21:53.724Z,87.10
2019-02-02T11:25:01.192Z,86.83
2019-02-02T11:28:09.350Z,86.57
2019-02-02T11:31:16.647Z,87.06
2019-02-02T11:34:23.508Z,87.32
2019-02-02T11:37:30.260Z,87.81
2019-02-02T11:40:37.260Z,87.06
2019-02-02T11:43:43.870Z,86.32
2019-02-02T11:46:51.765Z,85.48
2019-02-02T11:49:58.902Z,85.27
2019-02-02T11:53:05.551Z,84.97
2019-02-02T11:56:16.330Z,85.00
2019-02-02T11:59:22.586Z,84.56
2019-02-02T12:02:29.552Z,83.27
2019-02-02T12:05:36.372Z,82.29
2019-02-02T12:08:43.103Z,82.11
2019-02-02T12:11:49.810Z,82.50
2019-02-02T12:14:56.947Z,84.04
2019-02-02T12:18:03.875Z,83.95
2019-02-02T12:21:11.465Z,84.73
2019-02-02T12:24:19.687Z,84.72
2019-02-02T12:27:26.098Z,85.17
2019-02-02T12:30:34.688Z,86.16
2019-02-02T12:33:41.101Z,85.34
2019-02-02T12:36:47.919Z,85.46
2019-02-02T12:39:54.607Z,85.50
2019-02-02T12:43:00.991Z,85.47
2019-02-02T12:46:08.261Z,84.64
2019-02-02T12:49:15.261Z,83.68
2019-02-02T12:52:22.019Z,83.95
2019-02-02T12:55:28.575Z,84.28
2019-02-02T12:58:35.382Z,83.88
2019-02-02T13:01:43.096Z,84.46
2019-02-02T13:04:49.567Z,83.98
2019-02-02T13:07:57.153Z,84.59
2019-02-02T13:11:03.753Z,84.13
2019-02-02T13:14:10.621Z,84.18
2019-02-02T13:17:17.108Z,83.54
2019-02-02T13:20:23.582Z,82.42
2019-02-02T13:23:30.361Z,82.31
2019-02-02T13:26:38.122Z,81.93
2019-02-02T13:29:44.668Z,81.58
2019-02-02T13:32:51.437Z,81.55
2019-02-02T13:35:58.116Z,81.50
2019-02-02T13:39:08.319Z,81.95
2019-02-02T13:42:15.023Z,82.24
2019-02-02T13:45:22.065Z,82.31
2019-02-02T13:48:29.276Z,83.25
2019-02-02T13:51:37.568Z,83.31
2019-02-02T13:54:44.145Z,83.29
2019-02-02T13:57:51.292Z,82.75
2019-02-02T14:01:00.661Z,82.94
2019-02-02T14:04:07.771Z,84.37
2019-02-02T14:07:18.183Z,84.08
2019-02-02T14:10:24.788Z,85.04
2019-02-02T14:13:33.621Z,85.32
2019-02-02T14:16:40.481Z,85.06
2019-02-02T14:19:47.486Z,85.96
2019-02-02T14:22:54.080Z,85.92
2019-02-02T14:26:01.046Z,86.72
2019-02-02T14:29:07.605Z,87.16
2019-02-02T14:32:14.203Z,87.76
2019-02-02T14:35:21.834Z,88.17
2019-02-02T14:38:29.462Z,87.86
2019-02-02T14:41:37.175Z,87.71
2019-02-02T14:44:44.260Z,87.51
2019-02-02T14:47:51.357Z,87.08
2019-02-02T14:50:57.883Z,87.08
2019-02-02T14:54:04.853Z,86.82
2019-02-02T14:57:11.717Z,86.81
2019-02-02T15:00:20.349Z,87.07
2019-02-02T15:03:27.079Z,87.49
2019-02-02T15:06:37.363Z,87.38
2019-02-02T15:09:43.875Z,87.11
2019-02-02T15:12:53.215Z,86.68
2019-02-02T15:15:59.769Z,87.19
2019-02-02T15:19:06.405Z,87.37
2019-02-02T15:22:13.471Z,87.53
2019-02-02T15:25:23.354Z,87.28
2019-02-02T15:28:30.120Z,87.92
2019-02-02T15:31:37.587Z,88.09
2019-02-02T15:34:44.352Z,87.86
2019-02-02T15:37:53.279Z,88.08
2019-02-02T15:40:59.760Z,88.52
2019-02-02T15:44:06.697Z,88.69
2019-02-02T15:47:13.223Z,88.73
2019-02-02T15:50:20.213Z,88.99
2019-02-02T15:53:26.968Z,89.13
2019-02-02T15:56:34.361Z,89.75
2019-02-02T15:59:40.970Z,90.19
2019-02-02T16:02:47.652Z,90.81
2019-02-02T16:05:54.687Z,90.86
2019-02-02T16:09:01.460Z,90.73
2019-02-02T16:12:10.000Z,90.62
2019-02-02T16:15:17.302Z,90.75
2019-02-02T16:18:25.920Z,90.50
2019-02-02T16:21:32.823Z,90.28
2019-02-02T16:24:39.868Z,90.49
2019-02-02T16:27:46.547Z,90.55
2019-02-02T16:30:53.187Z,90.75
2019-02-02T16:34:02.162Z,90.96
2019-02-02T16:37:08.677Z,90.59
2019-02-02T16:40:17.750Z,90.77
2019-02-02T16:43:24.406Z,91.08
2019-02-02T16:46:31.270Z,91.04
2019-02-02T16:49:39.387Z,91.15
2019-02-02T16:52:46.290Z,91.39
2019-02-02T16:55:53.399Z,91.68
2019-02-02T17:00:43.656Z,91.48
2019-02-02T17:03:50.269Z,91.33
2019-02-02T17:06:56.788Z,91.33
2019-02-02T17:10:03.340Z,91.41
2019-02-02T17:13:12.057Z,91.43
2019-02-02T17:16:20.382Z,91.53
2019-02-02T17:19:27.466Z,91.72
2019-02-02T17:22:35.065Z,91.44
2019-02-02T17:25:43.903Z,90.98
2019-02-02T17:28:50.817Z,91.02
2019-02-02T17:31:58.180Z,91.35
2019-02-02T17:35:05.307Z,91.71
2019-02-02T17:38:12.049Z,91.76
2019-02-02T17:41:19.056Z,91.78
2019-02-02T17:44:25.991Z,91.85
2019-02-02T17:47:32.946Z,91.95
2019-02-02T17:50:39.719Z,92.00
2019-02-02T17:53:46.405Z,92.04
2019-02-02T17:56:52.912Z,92.10
2019-02-02T17:59:59.726Z,92.22
2019-02-02T18:03:06.713Z,92.16
2019-02-02T18:06:13.446Z,92.07
2019-02-02T18:09:19.965Z,92.01
2019-02-02T18:12:26.617Z,92.33
2019-02-02T18:15:33.456Z,92.37
2019-02-02T18:18:40.676Z,92.27
2019-02-02T18:21:47.595Z,92.18
2019-02-02T18:24:54.208Z,91.94
2019-02-02T18:28:01.011Z,91.96
2019-02-02T18:31:07.728Z,92.02
2019-02-02T18:34:15.587Z,92.29
2019-02-02T18:37:22.366Z,92.27
2019-02-02T18:40:29.316Z,91.96
2019-02-02T18:43:35.998Z,91.93
2019-02-02T18:46:43.034Z,92.06
2019-02-02T18:49:50.082Z,92.03
2019-02-02T18:52:56.687Z,92.14
2019-02-02T18:56:09.588Z,92.22
2019-02-02T18:59:16.077Z,92.21
2019-02-02T19:02:24.009Z,92.22
2019-02-02T19:05:30.952Z,92.08
2019-02-02T19:08:37.905Z,92.10
2019-02-02T19:11:44.356Z,92.26
2019-02-02T19:14:51.402Z,92.59
2019-02-02T19:17:59.462Z,92.65
2019-02-02T19:21:06.172Z,92.59
2019-02-02T19:24:13.086Z,92.56
2019-02-02T19:27:23.173Z,92.61
2019-02-02T19:30:31.467Z,92.59
2019-02-02T19:33:39.280Z,92.59
2019-02-02T19:36:46.238Z,92.53
2019-02-02T19:39:53.767Z,92.20
2019-02-02T19:43:00.427Z,92.43
2019-02-02T19:46:07.451Z,92.59
2019-02-02T19:49:13.879Z,92.66
2019-02-02T19:52:21.884Z,92.45
2019-02-02T19:55:31.256Z,92.24
2019-02-02T19:58:37.904Z,92.09
2019-02-02T20:01:45.191Z,92.09
2019-02-02T20:04:52.606Z,92.23
2019-02-02T20:07:59.345Z,92.26
2019-02-02T20:11:06.398Z,92.59
2019-02-02T20:14:15.126Z,92.75
2019-02-02T20:17:21.727Z,92.76
2019-02-02T20:20:28.654Z,92.95
2019-02-02T20:23:38.402Z,92.89
2019-02-02T20:26:43.389Z,92.88
2019-02-02T20:29:50.391Z,92.86
2019-02-02T20:32:57.451Z,92.86
2019-02-02T20:36:04.656Z,92.84
2019-02-02T20:39:11.128Z,92.84
2019-02-02T20:42:18.009Z,92.52
2019-02-02T20:45:26.776Z,92.31
2019-02-02T20:48:33.305Z,92.44
2019-02-02T20:51:41.842Z,92.59
2019-02-02T20:54:49.960Z,92.96
2019-02-02T20:57:57.869Z,93.05
2019-02-02T21:01:04.835Z,93.06
2019-02-02T21:04:12.576Z,93.02
2019-02-02T21:07:22.457Z,92.95
2019-02-02T21:10:30.208Z,92.78
2019-02-02T21:13:37.717Z,92.87
2019-02-02T21:16:45.201Z,92.89
2019-02-02T21:19:52.357Z,92.97
2019-02-02T21:23:00.502Z,93.09
2019-02-02T21:26:07.615Z,93.23
2019-02-02T21:29:14.365Z,93.35
2019-02-02T21:32:21.758Z,93.45
2019-02-02T21:35:28.641Z,93.52
2019-02-02T21:38:35.711Z,93.50
2019-02-02T21:41:44.896Z,93.38
2019-02-02T21:44:51.449Z,93.18
2019-02-02T21:47:58.069Z,93.03
2019-02-02T21:51:04.693Z,92.99
2019-02-02T21:54:11.290Z,93.00
2019-02-02T21:57:17.937Z,93.02
2019-02-02T22:00:29.370Z,93.10
2019-02-02T22:03:36.261Z,93.16
2019-02-02T22:06:43.531Z,93.14
2019-02-02T22:09:51.037Z,93.52
2019-02-02T22:12:59.046Z,93.47
2019-02-02T22:16:06.040Z,93.57
2019-02-02T22:19:14.048Z,93.65
2019-02-02T22:22:22.282Z,93.71
2019-02-02T22:25:30.088Z,93.73
2019-02-02T22:28:37.085Z,93.76
2019-02-02T22:31:45.624Z,93.73
2019-02-02T22:34:52.560Z,93.69
2019-02-02T22:37:59.781Z,93.76
2019-02-02T22:41:07.095Z,93.74
2019-02-02T22:44:13.884Z,93.58
2019-02-02T22:47:22.025Z,93.51
2019-02-02T22:50:29.361Z,93.62
2019-02-02T22:53:36.653Z,93.70
2019-02-02T22:56:44.456Z,93.74
2019-02-02T22:59:52.050Z,93.68
2019-02-02T23:02:59.157Z,93.63
2019-02-02T23:06:39.645Z,93.70
2019-02-02T23:10:32.114Z,93.73
2019-02-02T23:14:08.495Z,93.70
2019-02-02T23:17:15.948Z,93.78
2019-02-02T23:20:22.387Z,93.75
2019-02-02T23:23:29.458Z,93.84
2019-02-02T23:26:36.560Z,93.94
2019-02-02T23:29:43.484Z,93.97
2019-02-02T23:32:50.115Z,93.92
2019-02-02T23:35:57.167Z,93.96
2019-02-02T23:39:05.938Z,94.23
2019-02-02T23:42:12.708Z,94.31
2019-02-02T23:45:22.107Z,94.32
2019-02-02T23:48:29.001Z,94.37
2019-02-02T23:51:36.518Z,94.49
2019-02-02T23:54:43.026Z,94.55
2019-02-02T23:57:49.808Z,94.54
